KENW METAR and TAF | Updated Today

KENW METAR

Kenosha Regional Airport

Observation time: 5 min. ago

KENW 010700Z AUTO 00000KT 1 3/4SM BR CLR 07/06 A3020 RMK AO2 T00720061

Need help? Read our tutorial on how to read METARs or read the parsed version below.

Kenosha Regional Airport (KENW) METAR

  • Weather conditions on Sat, 01 Oct 2022 07:00:00 +0000 (5 min. ago):
  • Present conditions: Mist
  • Clouds: Clear skies
  • Visibility: 1207 meters
  • Wind: Calm
  • Temperature: 7 celsius
  • Dew point: 6 celsius
  • Pressure: 30.2 inHg
  • Remarks: AO2 T00720061


Useful to know...

KENW TAF

Kenosha Regional Airport

KENW 010604Z 0106/0206 00000KT 6SM BR FEW220 TEMPO 0110/0113 2SM BR FM011300 01005KT P6SM FEW230 FM011700 04009KT P6SM FEW250
Observation time: 61 min. ago
Need help? Read our tutorial on how to read TAFs or read the parsed version below.

Parsed version of TAF for Kenosha Regional Airport (KENW)

  • From 01 October at 06:00 UTC, to day 02 of the month at 06:00 UTC
  • Clouds: A few at 6706 meters
  • Visibility: 9656 meters
  • Other: Mist
  • Expected to arise temporarily, from 01 October at 10:00 UTC, to day 01 of the month at 13:00 UTC
  • Visibility: 3219 meters
  • Other: Mist
  • From day 1 of the month at 13:00 UTC
  • Clouds: A few at 7010 meters
  • Wind: 10 degrees at 5
  • From day 1 of the month at 17:00 UTC
  • Clouds: A few at 7620 meters
  • Wind: 40 degrees at 9